Time;durP1;ratioP1;P1;durP2;ratioP2;P2;SDS_P1;SDS_P2;PMS_P1;PMS_P2;Temp;Humidity;BMP_temperature;BMP_pressure;BME280_temperature;BME280_humidity;BME280_pressure;Samples;Min_cycle;Max_cycle;Signal;HPM_P1;HPM_P2
2020/12/09 00:00:43;;;;;;;12.63;7.50;;;2.90;99.90;;;;;;5033987;28;20083;-71
2020/12/09 00:03:08;;;;;;;12.68;7.15;;;2.80;99.90;;;;;;5033155;28;20017;-71
2020/12/09 00:05:34;;;;;;;11.45;7.35;;;2.80;99.90;;;;;;5037898;28;20375;-71
2020/12/09 00:08:00;;;;;;;13.10;7.60;;;2.80;99.90;;;;;;5031378;28;20060;-71
2020/12/09 00:10:25;;;;;;;12.05;7.55;;;2.80;99.90;;;;;;5034492;28;20059;-71
2020/12/09 00:12:51;;;;;;;13.43;7.68;;;2.80;99.90;;;;;;5032490;28;20064;-71
2020/12/09 00:15:20;;;;;;;11.95;7.05;;;2.80;99.90;;;;;;5030389;28;20581;-71
2020/12/09 00:17:45;;;;;;;12.23;7.20;;;2.80;99.90;;;;;;5021322;28;20033;-71
2020/12/09 00:20:11;;;;;;;13.52;7.90;;;2.80;99.90;;;;;;5034604;28;20140;-71
2020/12/09 00:22:37;;;;;;;13.40;7.60;;;2.80;99.90;;;;;;5032395;28;20133;-72
2020/12/09 00:25:03;;;;;;;13.75;7.88;;;2.80;99.90;;;;;;5029924;28;20052;-72
2020/12/09 00:27:29;;;;;;;13.82;7.57;;;2.90;99.90;;;;;;5034726;28;20028;-71
2020/12/09 00:29:57;;;;;;;13.02;7.50;;;2.90;99.90;;;;;;5037335;28;20029;-72
2020/12/09 00:32:22;;;;;;;13.13;8.27;;;2.90;99.90;;;;;;5032939;28;20037;-71
2020/12/09 00:34:48;;;;;;;12.45;7.32;;;2.90;99.90;;;;;;5032159;28;20036;-71
2020/12/09 00:37:14;;;;;;;13.35;7.50;;;2.90;99.90;;;;;;5031849;28;20029;-71
2020/12/09 00:39:39;;;;;;;11.63;6.60;;;2.90;99.90;;;;;;5032368;28;20021;-71
2020/12/09 00:42:05;;;;;;;11.02;6.65;;;3.00;99.90;;;;;;5033409;28;20030;-71
2020/12/09 00:44:30;;;;;;;12.25;6.47;;;3.00;99.90;;;;;;5034583;28;20527;-71
2020/12/09 00:46:56;;;;;;;13.13;7.50;;;3.00;99.90;;;;;;5030310;28;20501;-71
2020/12/09 00:49:24;;;;;;;12.18;7.30;;;3.00;99.90;;;;;;5030309;28;20029;-72
2020/12/09 00:51:50;;;;;;;12.77;7.60;;;2.90;99.90;;;;;;5034651;28;20031;-71
2020/12/09 00:54:15;;;;;;;11.70;7.22;;;2.90;99.90;;;;;;5037678;28;20028;-71
2020/12/09 00:56:44;;;;;;;12.27;7.68;;;2.90;99.90;;;;;;5032865;28;20025;-71
2020/12/09 00:59:10;;;;;;;13.73;7.60;;;2.90;99.90;;;;;;5032724;28;20155;-71
2020/12/09 01:01:38;;;;;;;13.48;7.63;;;2.90;99.90;;;;;;5016803;28;20072;-71
2020/12/09 01:04:06;;;;;;;12.90;7.60;;;2.90;99.90;;;;;;5036091;28;20494;-71
2020/12/09 01:06:33;;;;;;;11.57;7.10;;;2.90;99.90;;;;;;5031504;28;20036;-71
2020/12/09 01:09:07;;;;;;;11.77;6.80;;;2.90;99.90;;;;;;5031450;28;20117;-71
2020/12/09 01:11:33;;;;;;;10.75;6.35;;;2.90;99.90;;;;;;5032784;28;20029;-71
2020/12/09 01:13:59;;;;;;;10.00;6.10;;;3.00;99.90;;;;;;5030455;28;20036;-71
2020/12/09 01:16:24;;;;;;;10.98;7.03;;;3.00;99.90;;;;;;5033621;28;20120;-71
2020/12/09 01:18:52;;;;;;;12.55;8.02;;;3.00;99.90;;;;;;5033045;28;20022;-71
2020/12/09 01:21:26;;;;;;;12.13;7.35;;;2.90;99.90;;;;;;5033226;28;20027;-71
2020/12/09 01:23:54;;;;;;;13.77;7.95;;;3.00;99.90;;;;;;5032592;28;20067;-71
2020/12/09 01:26:25;;;;;;;12.57;7.43;;;2.90;99.90;;;;;;5031480;28;20025;-71
2020/12/09 01:28:50;;;;;;;12.40;7.07;;;3.00;99.90;;;;;;5034357;28;20508;-71
2020/12/09 01:31:22;;;;;;;12.05;7.18;;;3.00;99.90;;;;;;5035453;28;20054;-71
2020/12/09 01:33:48;;;;;;;8.02;4.95;;;3.00;99.90;;;;;;5032792;28;20022;-71
2020/12/09 01:36:27;;;;;;;10.88;6.25;;;3.00;99.90;;;;;;5037639;28;20024;-71
2020/12/09 01:38:52;;;;;;;10.65;6.25;;;3.00;99.90;;;;;;5027791;28;20029;-71
2020/12/09 01:41:19;;;;;;;10.27;6.13;;;3.00;99.90;;;;;;5035400;28;21621;-71
2020/12/09 01:43:47;;;;;;;10.98;6.70;;;3.00;99.90;;;;;;5032354;28;20028;-71
2020/12/09 01:46:17;;;;;;;10.00;6.25;;;3.00;99.90;;;;;;5034656;28;20033;-73
2020/12/09 01:48:43;;;;;;;11.93;6.90;;;3.10;99.90;;;;;;5035116;28;20033;-71
2020/12/09 01:51:12;;;;;;;10.35;6.72;;;3.10;99.90;;;;;;5032716;28;20029;-71
2020/12/09 01:53:37;;;;;;;9.20;6.28;;;3.10;99.90;;;;;;5005361;28;20021;-71
2020/12/09 01:56:03;;;;;;;10.60;5.90;;;3.10;99.90;;;;;;5012868;28;20027;-71
2020/12/09 01:58:29;;;;;;;9.63;6.00;;;3.10;99.90;;;;;;5028455;28;20114;-71
2020/12/09 02:00:54;;;;;;;11.15;5.88;;;3.10;99.90;;;;;;5033338;28;20030;-71
2020/12/09 02:03:20;;;;;;;14.05;7.68;;;3.10;99.90;;;;;;5029667;28;20018;-71
2020/12/09 02:05:46;;;;;;;26.52;13.45;;;3.10;99.90;;;;;;5031170;28;20041;-71
2020/12/09 02:08:14;;;;;;;22.60;11.95;;;3.10;99.90;;;;;;5032571;28;20494;-71
2020/12/09 02:10:44;;;;;;;13.77;8.18;;;3.10;99.90;;;;;;5021705;28;20033;-71
2020/12/09 02:13:10;;;;;;;13.65;7.75;;;3.10;99.90;;;;;;5034414;28;20040;-71
2020/12/09 02:15:35;;;;;;;13.40;7.60;;;3.10;99.90;;;;;;5031505;28;20032;-71
2020/12/09 02:18:01;;;;;;;16.92;10.13;;;3.10;99.90;;;;;;5033141;28;20060;-71
2020/12/09 02:20:29;;;;;;;18.33;11.02;;;3.10;99.90;;;;;;5034209;28;20037;-71
2020/12/09 02:22:55;;;;;;;20.63;12.27;;;3.10;99.90;;;;;;5031087;28;20236;-71
2020/12/09 02:25:21;;;;;;;18.45;11.48;;;3.10;99.90;;;;;;5032584;28;20478;-71
2020/12/09 02:27:47;;;;;;;20.05;10.73;;;3.10;99.90;;;;;;5031122;28;20021;-69
2020/12/09 02:30:12;;;;;;;15.85;10.05;;;3.10;99.90;;;;;;5032395;28;20044;-69
2020/12/09 02:32:38;;;;;;;15.43;9.60;;;3.10;99.90;;;;;;5029908;28;20069;-72
2020/12/09 02:35:08;;;;;;;15.63;9.55;;;3.10;99.90;;;;;;5029938;28;20071;-69
2020/12/09 02:37:33;;;;;;;15.88;9.27;;;3.00;99.90;;;;;;5033413;28;20017;-69
2020/12/09 02:39:59;;;;;;;14.95;9.65;;;3.00;99.90;;;;;;5032197;28;20389;-69
2020/12/09 02:42:27;;;;;;;17.27;9.55;;;3.00;99.90;;;;;;5027728;28;20030;-69
2020/12/09 02:44:52;;;;;;;15.90;9.10;;;3.00;99.90;;;;;;5026796;28;20144;-69
2020/12/09 02:47:18;;;;;;;14.15;8.55;;;3.00;99.90;;;;;;5033633;28;20116;-69
2020/12/09 02:49:46;;;;;;;17.20;10.25;;;3.00;99.90;;;;;;5030877;28;20060;-71
2020/12/09 02:52:14;;;;;;;15.95;9.02;;;3.00;99.90;;;;;;5030762;28;20038;-70
2020/12/09 02:54:42;;;;;;;13.07;8.00;;;3.00;99.90;;;;;;5045536;28;20159;-70
2020/12/09 02:57:07;;;;;;;15.02;8.05;;;3.00;99.90;;;;;;5031028;28;20092;-69
2020/12/09 02:59:33;;;;;;;12.35;7.35;;;3.00;99.90;;;;;;5030383;28;20044;-69
2020/12/09 03:01:59;;;;;;;12.63;7.45;;;3.10;99.90;;;;;;5030316;28;20029;-70
2020/12/09 03:04:26;;;;;;;14.65;8.85;;;3.00;99.90;;;;;;5027064;28;20025;-70
2020/12/09 03:06:52;;;;;;;15.57;8.70;;;3.10;99.90;;;;;;5026433;28;20022;-69
2020/12/09 03:09:20;;;;;;;13.07;8.27;;;3.00;99.90;;;;;;5026857;28;20514;-69
2020/12/09 03:11:46;;;;;;;13.48;8.52;;;3.00;99.90;;;;;;5029274;28;20607;-69
2020/12/09 03:14:11;;;;;;;14.63;8.55;;;3.00;99.90;;;;;;5030612;28;20033;-70
2020/12/09 03:16:39;;;;;;;12.77;8.25;;;3.10;99.90;;;;;;5027530;28;20026;-69
2020/12/09 03:19:05;;;;;;;13.60;8.20;;;3.10;99.90;;;;;;5029469;28;20036;-70
2020/12/09 03:21:31;;;;;;;13.43;8.27;;;3.00;99.90;;;;;;5035643;28;20034;-70
2020/12/09 03:23:59;;;;;;;12.50;7.75;;;3.00;99.90;;;;;;5036905;28;20087;-70
2020/12/09 03:26:26;;;;;;;11.93;7.47;;;3.00;99.90;;;;;;5019833;28;20475;-70
2020/12/09 03:28:55;;;;;;;12.98;7.97;;;3.00;99.90;;;;;;5031566;28;20025;-71
2020/12/09 03:31:21;;;;;;;13.88;7.63;;;3.00;99.90;;;;;;5035278;28;20079;-69
2020/12/09 03:33:49;;;;;;;12.40;7.00;;;3.00;99.90;;;;;;5033332;28;20112;-69
2020/12/09 03:36:17;;;;;;;13.35;7.55;;;3.00;99.90;;;;;;5032561;28;20137;-70
2020/12/09 03:38:45;;;;;;;12.32;7.70;;;3.00;99.90;;;;;;5035845;28;20044;-70
2020/12/09 03:41:11;;;;;;;14.98;8.07;;;3.00;99.90;;;;;;5034004;28;20068;-70
2020/12/09 03:43:37;;;;;;;12.38;7.38;;;3.00;99.90;;;;;;5031715;28;20554;-70
2020/12/09 03:46:02;;;;;;;12.30;7.68;;;3.00;99.90;;;;;;5035079;28;20071;-70
2020/12/09 03:48:28;;;;;;;12.00;7.70;;;3.00;99.90;;;;;;5032962;28;20026;-70
2020/12/09 03:50:56;;;;;;;16.95;9.57;;;3.00;99.90;;;;;;5032271;28;20120;-70
2020/12/09 03:53:22;;;;;;;17.65;10.40;;;3.00;99.90;;;;;;5036807;28;20087;-70
2020/12/09 03:55:50;;;;;;;19.02;9.93;;;3.00;99.90;;;;;;5034512;28;22004;-70
2020/12/09 03:58:16;;;;;;;18.20;10.10;;;3.00;99.90;;;;;;5035197;28;20034;-70
2020/12/09 04:00:44;;;;;;;19.73;11.88;;;3.00;99.90;;;;;;5030851;28;20036;-70
2020/12/09 04:03:12;;;;;;;18.27;10.60;;;2.90;99.90;;;;;;5034305;28;20045;-70
2020/12/09 04:05:38;;;;;;;19.88;11.52;;;3.00;99.90;;;;;;5034227;28;20022;-70
2020/12/09 04:08:06;;;;;;;18.48;11.52;;;3.00;99.90;;;;;;5031932;28;20059;-70
2020/12/09 04:10:31;;;;;;;21.67;12.75;;;3.00;99.90;;;;;;5035588;28;20026;-70
2020/12/09 04:12:59;;;;;;;18.63;12.02;;;3.00;99.90;;;;;;5040805;28;20056;-70
2020/12/09 04:15:25;;;;;;;20.08;12.05;;;3.00;99.90;;;;;;5034429;28;20075;-70
2020/12/09 04:17:50;;;;;;;27.70;13.98;;;3.00;99.90;;;;;;5032816;28;20058;-70
2020/12/09 04:20:16;;;;;;;22.85;13.07;;;3.00;99.90;;;;;;5031645;28;20065;-70
2020/12/09 04:22:42;;;;;;;20.05;12.60;;;2.90;99.90;;;;;;5036247;28;20033;-70
2020/12/09 04:25:10;;;;;;;21.83;11.82;;;2.90;99.90;;;;;;5035526;28;20102;-71
2020/12/09 04:27:36;;;;;;;23.70;13.63;;;2.90;99.90;;;;;;5029667;28;20026;-70
2020/12/09 04:30:02;;;;;;;23.98;13.27;;;2.90;99.90;;;;;;5032642;28;20439;-70
2020/12/09 04:32:28;;;;;;;22.05;13.48;;;2.90;99.90;;;;;;5035989;28;20121;-70
2020/12/09 04:34:56;;;;;;;21.55;12.90;;;2.90;99.90;;;;;;5031918;28;20535;-71
2020/12/09 04:37:21;;;;;;;20.77;12.93;;;2.80;99.90;;;;;;5033598;28;20041;-70
2020/12/09 04:39:49;;;;;;;20.38;11.50;;;2.80;99.90;;;;;;5034736;28;20059;-70
2020/12/09 04:42:18;;;;;;;21.83;12.82;;;2.90;99.90;;;;;;5031793;28;20056;-70
2020/12/09 04:44:48;;;;;;;21.40;12.57;;;2.80;99.90;;;;;;5033648;28;20105;-70
2020/12/09 04:47:40;;;;;;;22.80;12.77;;;2.80;99.90;;;;;;5019942;28;20120;-70
2020/12/09 04:50:10;;;;;;;19.67;11.68;;;2.80;99.90;;;;;;5030524;28;20049;-70
2020/12/09 04:52:40;;;;;;;21.63;11.95;;;2.70;99.90;;;;;;5028026;28;20082;-70
2020/12/09 04:55:10;;;;;;;20.48;12.48;;;2.80;99.90;;;;;;5035403;28;20076;-70
2020/12/09 04:57:42;;;;;;;19.27;11.98;;;2.70;99.90;;;;;;5027279;28;20057;-70
2020/12/09 05:00:14;;;;;;;22.35;12.93;;;2.70;99.90;;;;;;5030122;28;20018;-70
2020/12/09 05:02:56;;;;;;;20.88;12.75;;;2.60;99.90;;;;;;5034202;28;20044;-70
2020/12/09 05:05:24;;;;;;;;;;;2.70;99.90;;;;;;4998825;28;20418;-70
2020/12/09 05:07:56;;;;;;;20.50;11.20;;;2.60;99.90;;;;;;5064701;28;19909;-70
2020/12/09 05:10:25;;;;;;;16.30;10.40;;;2.60;99.90;;;;;;5029327;28;20021;-70
2020/12/09 05:12:51;;;;;;;24.70;14.07;;;2.60;99.90;;;;;;5028091;28;20075;-70
2020/12/09 05:15:20;;;;;;;23.90;13.20;;;2.50;99.90;;;;;;5022451;28;20092;-70
2020/12/09 05:18:05;;;;;;;24.00;14.00;;;2.50;99.90;;;;;;5030484;28;20040;-70
2020/12/09 05:20:34;;;;;;;26.38;14.68;;;2.50;99.90;;;;;;5031498;28;20079;-70
2020/12/09 05:23:00;;;;;;;29.65;16.98;;;2.50;99.90;;;;;;5036078;28;20029;-70
2020/12/09 05:25:28;;;;;;;23.73;13.60;;;2.40;99.90;;;;;;5012357;28;20033;-70
2020/12/09 05:27:56;;;;;;;25.27;14.30;;;2.40;99.90;;;;;;5032850;28;20033;-70
2020/12/09 05:30:57;;;;;;;24.80;13.75;;;2.40;99.90;;;;;;5033931;28;20029;-70
2020/12/09 05:33:30;;;;;;;24.60;13.68;;;2.40;99.90;;;;;;5016514;28;20065;-70
2020/12/09 05:36:03;;;;;;;23.35;14.13;;;2.40;99.90;;;;;;5028511;28;20037;-70
2020/12/09 05:38:28;;;;;;;;;;;2.40;99.90;;;;;;5019059;28;20542;-70
2020/12/09 05:40:54;;;;;;;23.55;12.43;;;2.30;99.90;;;;;;5031353;28;20008;-70
2020/12/09 05:43:22;;;;;;;21.58;13.23;;;2.30;99.90;;;;;;5032710;28;20082;-70
2020/12/09 05:45:48;;;;;;;20.98;12.45;;;2.30;99.90;;;;;;5033097;28;20020;-70
2020/12/09 05:48:16;;;;;;;24.13;13.35;;;2.40;99.90;;;;;;5030718;28;20605;-70
2020/12/09 05:50:45;;;;;;;28.25;14.88;;;2.30;99.90;;;;;;5032511;28;20526;-70
2020/12/09 05:53:18;;;;;;;28.55;15.63;;;2.30;99.90;;;;;;5032974;28;20688;-70
2020/12/09 05:55:44;;;;;;;;;;;2.20;99.90;;;;;;5033086;28;20025;-70
2020/12/09 05:58:29;;;;;;;30.67;16.58;;;2.30;99.90;;;;;;5036882;28;19917;-70
2020/12/09 06:01:09;;;;;;;32.45;16.48;;;2.30;99.90;;;;;;5030876;28;20058;-70
2020/12/09 06:03:35;;;;;;;27.65;14.80;;;2.30;99.90;;;;;;5031895;28;20025;-70
2020/12/09 06:06:09;;;;;;;28.20;15.30;;;2.30;99.90;;;;;;5032435;28;20442;-70
2020/12/09 06:08:43;;;;;;;24.85;13.20;;;2.40;99.90;;;;;;5030389;28;20025;-70
2020/12/09 06:11:09;;;;;;;29.05;15.63;;;2.40;99.90;;;;;;5034718;28;20065;-70
2020/12/09 06:13:37;;;;;;;30.25;15.77;;;2.40;99.90;;;;;;5027505;28;20021;-70
2020/12/09 06:16:04;;;;;;;26.40;14.57;;;2.40;99.90;;;;;;5048057;28;20029;-70
2020/12/09 06:18:30;;;;;;;19.95;11.80;;;2.40;99.90;;;;;;5034201;28;20025;-70
2020/12/09 06:20:59;;;;;;;24.63;13.88;;;2.50;99.90;;;;;;5033016;28;20025;-70
2020/12/09 06:23:27;;;;;;;22.48;12.70;;;2.50;99.90;;;;;;5017915;28;20055;-70
2020/12/09 06:25:54;;;;;;;26.92;14.65;;;2.60;99.90;;;;;;5031929;28;20035;-70
2020/12/09 06:28:21;;;;;;;24.48;13.27;;;2.60;99.90;;;;;;5032279;28;20025;-70
2020/12/09 06:30:49;;;;;;;23.23;13.38;;;2.70;99.90;;;;;;5031707;28;20021;-69
2020/12/09 06:33:36;;;;;;;24.80;13.70;;;2.70;99.90;;;;;;5029694;28;20034;-70
2020/12/09 06:36:29;;;;;;;20.73;12.18;;;2.70;99.90;;;;;;5032715;28;20041;-71
2020/12/09 06:39:13;;;;;;;20.15;12.52;;;2.70;99.90;;;;;;5026861;28;20071;-70
2020/12/09 06:42:01;;;;;;;21.35;12.45;;;2.70;99.90;;;;;;5030699;28;20492;-70
2020/12/09 06:44:30;;;;;;;18.65;10.77;;;2.70;99.90;;;;;;5024622;28;20029;-71
2020/12/09 06:46:57;;;;;;;23.77;13.52;;;2.70;99.90;;;;;;5032615;28;20044;-70
2020/12/09 06:49:32;;;;;;;25.92;14.10;;;2.70;99.90;;;;;;5033409;28;20332;-71
2020/12/09 06:52:10;;;;;;;24.05;13.88;;;2.70;99.90;;;;;;5030419;28;20041;-70
2020/12/09 06:54:45;;;;;;;23.63;13.85;;;2.70;99.90;;;;;;5029015;28;20029;-70
2020/12/09 06:57:25;;;;;;;24.33;13.48;;;2.60;99.90;;;;;;5032460;28;20099;-70
2020/12/09 07:00:17;;;;;;;24.10;13.70;;;2.60;99.90;;;;;;5017707;28;20482;-71
2020/12/09 07:02:46;;;;;;;;;;;2.60;99.90;;;;;;5031457;28;20563;-70
2020/12/09 07:05:13;;;;;;;24.48;13.73;;;2.60;99.90;;;;;;5032247;28;20357;-70
2020/12/09 07:07:49;;;;;;;22.63;12.93;;;2.50;99.90;;;;;;5032082;28;20053;-71
2020/12/09 07:10:18;;;;;;;21.90;13.05;;;2.50;99.90;;;;;;5030948;28;20021;-71
2020/12/09 07:12:44;;;;;;;23.17;13.13;;;2.50;99.90;;;;;;5028707;28;20037;-72
2020/12/09 07:15:10;;;;;;;24.10;13.38;;;2.50;99.90;;;;;;5025992;28;20040;-70
2020/12/09 07:17:38;;;;;;;25.75;13.55;;;2.50;99.90;;;;;;5026237;28;20043;-70
2020/12/09 07:20:04;;;;;;;24.05;13.55;;;2.50;99.90;;;;;;5029297;28;20465;-70
2020/12/09 07:22:32;;;;;;;25.67;14.45;;;2.50;99.90;;;;;;5023836;28;20048;-70
2020/12/09 07:24:57;;;;;;;23.38;13.98;;;2.50;99.90;;;;;;5023047;28;20032;-70
2020/12/09 07:27:25;;;;;;;25.50;13.55;;;2.50;99.90;;;;;;5024620;28;20026;-70
2020/12/09 07:29:54;;;;;;;20.25;12.80;;;2.50;99.90;;;;;;5025882;28;20562;-70
2020/12/09 07:32:22;;;;;;;22.30;12.93;;;2.50;99.90;;;;;;5032348;28;20063;-70
2020/12/09 07:35:01;;;;;;;22.63;12.27;;;2.60;99.90;;;;;;5041117;28;20021;-70
2020/12/09 07:37:32;;;;;;;23.23;13.80;;;2.50;99.90;;;;;;5028441;28;20157;-70
2020/12/09 07:40:02;;;;;;;26.27;14.02;;;2.50;99.90;;;;;;5043958;28;20021;-70
2020/12/09 07:42:30;;;;;;;21.65;13.05;;;2.50;99.90;;;;;;5044073;28;20029;-70
2020/12/09 07:45:00;;;;;;;23.75;13.57;;;2.50;99.90;;;;;;5027115;28;20052;-70
2020/12/09 07:47:27;;;;;;;25.50;13.82;;;2.50;99.90;;;;;;5027637;28;20083;-70
2020/12/09 07:49:54;;;;;;;23.92;13.98;;;2.50;99.90;;;;;;5025734;28;20522;-70
2020/12/09 07:52:27;;;;;;;24.58;13.43;;;2.60;99.90;;;;;;5029167;28;20025;-70
2020/12/09 07:54:57;;;;;;;23.27;13.60;;;2.50;99.90;;;;;;5026177;28;20056;-70
2020/12/09 07:57:35;;;;;;;21.55;12.77;;;2.60;99.90;;;;;;5026308;28;20067;-71
2020/12/09 08:00:04;;;;;;;21.48;13.07;;;2.60;99.90;;;;;;5012866;28;20028;-71
2020/12/09 08:02:30;;;;;;;18.80;11.75;;;2.60;99.90;;;;;;5026946;28;20021;-70
2020/12/09 08:05:21;;;;;;;18.30;11.48;;;2.70;99.90;;;;;;5025535;28;20069;-70
2020/12/09 08:07:51;;;;;;;20.88;12.10;;;2.70;99.90;;;;;;5028726;28;20536;-70
2020/12/09 08:10:23;;;;;;;21.55;12.52;;;2.70;99.90;;;;;;5022572;28;20163;-70
2020/12/09 08:12:58;;;;;;;21.23;13.10;;;2.80;99.90;;;;;;5031276;28;20029;-70
2020/12/09 08:15:23;;;;;;;19.70;12.27;;;2.80;99.90;;;;;;5030711;28;20022;-70
2020/12/09 08:17:51;;;;;;;18.95;11.65;;;2.80;99.90;;;;;;5031138;28;20033;-71
2020/12/09 08:20:17;;;;;;;19.73;11.85;;;2.70;99.90;;;;;;5029145;28;20033;-71
2020/12/09 08:23:09;;;;;;;19.40;11.27;;;2.70;99.90;;;;;;5028221;28;20022;-71
2020/12/09 08:25:56;;;;;;;18.77;11.48;;;2.80;99.90;;;;;;5029901;28;20033;-71
2020/12/09 08:28:23;;;;;;;21.00;12.50;;;2.70;99.90;;;;;;5027292;28;20031;-71
2020/12/09 08:30:48;;;;;;;25.50;14.02;;;2.70;99.90;;;;;;5031079;28;20391;-70
2020/12/09 08:33:27;;;;;;;29.52;17.52;;;2.60;99.90;;;;;;5032445;28;20037;-71
2020/12/09 08:36:00;;;;;;;28.67;17.20;;;2.70;99.90;;;;;;5030792;28;20356;-71
2020/12/09 08:38:34;;;;;;;29.77;18.17;;;2.60;99.90;;;;;;5030297;28;20033;-71
2020/12/09 08:41:01;;;;;;;30.48;18.15;;;2.70;99.90;;;;;;5030938;28;20105;-71
2020/12/09 08:43:31;;;;;;;24.27;15.63;;;2.70;99.90;;;;;;5009457;28;20043;-71
2020/12/09 08:45:59;;;;;;;28.95;18.02;;;2.70;99.90;;;;;;5025820;28;20057;-71
2020/12/09 08:48:25;;;;;;;27.52;16.70;;;2.70;99.90;;;;;;5029759;28;20047;-71
2020/12/09 08:50:51;;;;;;;28.83;17.38;;;2.80;99.90;;;;;;5030674;28;20026;-71
2020/12/09 08:53:19;;;;;;;30.55;18.02;;;2.80;99.90;;;;;;5029349;28;20045;-71
2020/12/09 08:55:49;;;;;;;26.70;16.23;;;2.80;99.90;;;;;;5028773;28;20399;-71
2020/12/09 08:58:15;;;;;;;33.45;20.48;;;2.80;99.90;;;;;;5017455;28;20064;-71
2020/12/09 09:00:41;;;;;;;36.03;21.10;;;2.70;99.90;;;;;;5030978;28;20040;-71
2020/12/09 09:03:12;;;;;;;34.08;18.70;;;2.70;99.90;;;;;;5015660;28;20026;-71
2020/12/09 09:05:41;;;;;;;33.58;19.13;;;2.80;99.90;;;;;;5029277;28;20049;-71
2020/12/09 09:08:09;;;;;;;31.08;18.73;;;2.80;99.90;;;;;;5044337;28;20109;-71
2020/12/09 09:10:35;;;;;;;31.02;18.65;;;2.80;99.90;;;;;;5025504;28;20044;-71
2020/12/09 09:13:01;;;;;;;31.40;19.00;;;2.90;99.90;;;;;;5033991;28;20029;-71
2020/12/09 09:15:27;;;;;;;34.88;20.05;;;2.90;99.90;;;;;;5028746;28;20078;-71
2020/12/09 09:17:55;;;;;;;34.60;20.52;;;2.90;99.90;;;;;;5031048;28;20037;-70
2020/12/09 09:20:21;;;;;;;38.00;22.77;;;3.00;99.90;;;;;;5032778;28;20025;-71
2020/12/09 09:22:50;;;;;;;35.58;21.40;;;3.00;99.90;;;;;;5031083;28;20087;-71
2020/12/09 09:25:18;;;;;;;34.75;21.40;;;3.10;99.90;;;;;;5027376;28;20041;-71
2020/12/09 09:27:44;;;;;;;39.70;21.95;;;3.10;99.90;;;;;;5028883;28;20032;-71
2020/12/09 09:30:14;;;;;;;27.73;15.88;;;3.10;99.90;;;;;;5030929;28;20036;-71
2020/12/09 09:32:40;;;;;;;25.77;15.85;;;3.10;99.90;;;;;;5031359;28;20041;-71
2020/12/09 09:35:09;;;;;;;28.02;16.40;;;3.20;99.90;;;;;;5027284;28;20541;-71
2020/12/09 09:37:35;;;;;;;32.85;18.60;;;3.20;99.90;;;;;;5029230;28;20125;-71
2020/12/09 09:40:01;;;;;;;34.55;19.77;;;3.20;99.90;;;;;;5027735;28;20585;-71
2020/12/09 09:42:26;;;;;;;36.00;20.58;;;3.30;99.90;;;;;;5027349;28;20526;-71
2020/12/09 09:44:52;;;;;;;30.25;18.02;;;3.30;99.90;;;;;;5010650;28;20029;-71
2020/12/09 09:47:21;;;;;;;24.63;13.98;;;3.40;99.90;;;;;;5025799;28;20461;-71
2020/12/09 09:49:46;;;;;;;23.38;14.00;;;3.40;99.90;;;;;;5026699;28;20045;-71
2020/12/09 09:52:14;;;;;;;23.83;14.43;;;3.40;99.90;;;;;;5028979;28;20041;-71
2020/12/09 09:54:40;;;;;;;29.73;17.52;;;3.50;99.90;;;;;;5029787;28;20117;-71
2020/12/09 09:57:09;;;;;;;20.92;13.15;;;3.50;99.90;;;;;;5032387;28;20109;-70
2020/12/09 09:59:34;;;;;;;23.50;13.45;;;3.60;99.90;;;;;;5026365;28;20030;-71
2020/12/09 10:02:02;;;;;;;21.38;13.48;;;3.60;99.90;;;;;;5031768;28;20026;-70
2020/12/09 10:04:30;;;;;;;21.58;12.68;;;3.70;99.90;;;;;;5023652;28;20041;-75
2020/12/09 10:07:00;;;;;;;21.48;12.48;;;3.80;99.90;;;;;;5022877;28;21994;-74
2020/12/09 10:09:27;;;;;;;24.48;14.55;;;3.90;99.90;;;;;;5026693;28;20042;-77
2020/12/09 10:11:56;;;;;;;21.15;13.57;;;3.90;99.90;;;;;;5027182;28;20058;-77
2020/12/09 10:14:21;;;;;;;22.65;13.32;;;3.90;99.90;;;;;;5029514;28;20033;-77
2020/12/09 10:16:47;;;;;;;20.90;12.50;;;3.90;99.90;;;;;;5027753;28;20037;-77
2020/12/09 10:19:18;;;;;;;19.55;12.13;;;4.00;99.90;;;;;;5027650;28;20021;-77
2020/12/09 10:21:46;;;;;;;21.02;12.75;;;4.00;99.90;;;;;;5025995;28;20218;-76
2020/12/09 10:24:12;;;;;;;21.88;13.70;;;4.10;99.90;;;;;;5025206;28;20075;-77
2020/12/09 10:26:39;;;;;;;23.63;13.45;;;4.10;99.90;;;;;;5027327;28;20029;-77
2020/12/09 10:29:08;;;;;;;19.77;12.18;;;4.10;99.90;;;;;;5040918;28;20404;-77
2020/12/09 10:31:39;;;;;;;23.00;13.80;;;4.10;99.90;;;;;;5026507;28;20129;-77
2020/12/09 10:34:15;;;;;;;20.83;12.93;;;4.20;99.90;;;;;;5026835;28;20017;-77
2020/12/09 10:36:52;;;;;;;21.02;13.00;;;4.10;99.90;;;;;;5026875;28;20129;-77
2020/12/09 10:39:21;;;;;;;23.77;14.18;;;4.20;99.90;;;;;;5025946;28;20029;-77
2020/12/09 10:41:49;;;;;;;23.00;14.32;;;4.20;99.90;;;;;;5033446;28;20041;-77
2020/12/09 10:44:23;;;;;;;21.02;13.27;;;4.30;99.90;;;;;;5044502;28;20033;-77
2020/12/09 10:46:51;;;;;;;21.73;12.98;;;4.20;99.90;;;;;;5026279;28;20079;-77
2020/12/09 10:49:17;;;;;;;20.27;12.73;;;4.30;99.90;;;;;;5027612;28;20102;-77
2020/12/09 10:51:51;;;;;;;20.60;13.00;;;4.30;99.90;;;;;;5025255;28;20064;-77
2020/12/09 10:54:20;;;;;;;20.60;12.75;;;4.30;99.90;;;;;;5027203;28;20025;-77
2020/12/09 10:56:46;;;;;;;21.50;12.85;;;4.40;99.90;;;;;;5024563;28;20033;-77
2020/12/09 10:59:12;;;;;;;21.65;13.93;;;4.50;99.90;;;;;;5023974;28;20082;-77
2020/12/09 11:01:40;;;;;;;22.25;14.10;;;4.50;99.90;;;;;;5026988;28;20041;-77
2020/12/09 11:04:05;;;;;;;39.45;24.90;;;4.50;99.90;;;;;;5026283;28;20080;-77
2020/12/09 11:06:35;;;;;;;47.78;30.00;;;4.60;99.90;;;;;;5025852;28;20029;-77
2020/12/09 11:09:07;;;;;;;40.85;25.40;;;4.50;99.90;;;;;;5041047;28;20668;-77
2020/12/09 11:11:33;;;;;;;41.53;26.40;;;4.50;99.90;;;;;;5023715;28;20047;-77
2020/12/09 11:14:01;;;;;;;43.13;27.85;;;4.50;99.90;;;;;;5027315;28;20676;-77
2020/12/09 11:16:27;;;;;;;46.38;28.70;;;4.50;99.90;;;;;;5039539;28;20128;-77
2020/12/09 11:18:55;;;;;;;39.55;27.67;;;4.60;99.90;;;;;;5024585;28;20017;-77
2020/12/09 11:21:22;;;;;;;42.95;28.10;;;4.60;99.90;;;;;;5028283;28;20474;-77
2020/12/09 11:23:48;;;;;;;40.58;27.38;;;4.60;99.90;;;;;;5026153;28;20095;-77
2020/12/09 11:26:16;;;;;;;42.55;26.55;;;4.60;99.90;;;;;;5023841;28;20393;-77
2020/12/09 11:28:44;;;;;;;42.33;28.15;;;4.60;99.90;;;;;;5018606;28;20036;-77
2020/12/09 11:31:10;;;;;;;42.67;28.75;;;4.60;99.90;;;;;;5023577;28;20065;-77
2020/12/09 11:33:38;;;;;;;42.05;27.30;;;4.60;99.90;;;;;;5021306;28;20269;-77
2020/12/09 11:36:04;;;;;;;43.47;28.10;;;4.60;99.90;;;;;;5025591;28;20034;-77
2020/12/09 11:38:29;;;;;;;44.90;25.95;;;4.50;99.90;;;;;;5012309;28;20059;-77
2020/12/09 11:40:55;;;;;;;36.53;23.67;;;4.50;99.90;;;;;;5028210;28;20040;-77
2020/12/09 11:43:21;;;;;;;38.65;24.90;;;4.50;99.90;;;;;;5028554;28;20036;-77
2020/12/09 11:45:52;;;;;;;28.00;18.50;;;4.50;99.90;;;;;;5036181;28;20028;-77
2020/12/09 11:48:18;;;;;;;27.90;18.53;;;4.50;99.90;;;;;;5045892;28;20037;-77
2020/12/09 11:50:44;;;;;;;29.35;18.95;;;4.60;99.90;;;;;;5029177;28;20086;-77
2020/12/09 11:53:12;;;;;;;26.25;16.80;;;4.60;99.90;;;;;;5029514;28;20633;-77
2020/12/09 11:55:42;;;;;;;25.45;17.05;;;4.70;99.90;;;;;;5028234;28;20059;-77
2020/12/09 11:58:08;;;;;;;24.25;15.23;;;4.70;99.90;;;;;;5027685;28;20061;-77
2020/12/09 12:00:36;;;;;;;22.67;14.45;;;4.70;99.90;;;;;;5028612;28;20038;-77
2020/12/09 12:03:04;;;;;;;23.80;15.57;;;4.70;99.90;;;;;;5029617;28;20117;-77
2020/12/09 12:05:34;;;;;;;21.88;14.68;;;4.80;99.90;;;;;;5029573;28;20079;-77
2020/12/09 12:08:04;;;;;;;22.23;14.45;;;4.80;99.90;;;;;;5025972;28;20037;-77
2020/12/09 12:10:31;;;;;;;20.30;13.05;;;4.70;99.90;;;;;;5014675;28;20455;-77
2020/12/09 12:13:00;;;;;;;21.15;14.07;;;4.70;99.90;;;;;;5013285;28;20423;-77
2020/12/09 12:15:25;;;;;;;25.08;14.35;;;4.70;99.90;;;;;;5027564;28;20085;-75
2020/12/09 12:17:56;;;;;;;22.83;15.20;;;4.80;99.90;;;;;;5029194;28;20112;-76
2020/12/09 12:20:21;;;;;;;24.50;16.63;;;4.80;99.90;;;;;;5030196;28;20022;-76
2020/12/09 12:22:49;;;;;;;23.45;13.88;;;4.80;99.90;;;;;;5027005;28;20033;-76
2020/12/09 12:25:15;;;;;;;21.98;13.75;;;4.80;99.90;;;;;;5026902;28;20087;-76
2020/12/09 12:27:40;;;;;;;23.83;14.88;;;4.80;99.90;;;;;;5029293;28;20037;-76
2020/12/09 12:30:09;;;;;;;22.08;13.95;;;4.80;99.90;;;;;;5029160;28;20022;-76
2020/12/09 12:32:37;;;;;;;21.88;14.10;;;4.80;99.90;;;;;;5031423;28;20528;-76
2020/12/09 12:35:05;;;;;;;22.38;13.25;;;4.70;99.90;;;;;;5028111;28;20036;-76
2020/12/09 12:37:34;;;;;;;20.77;13.00;;;4.70;99.90;;;;;;5022755;28;20029;-76
2020/12/09 12:40:02;;;;;;;21.67;13.93;;;4.70;99.90;;;;;;5034372;28;20053;-75
2020/12/09 12:42:30;;;;;;;21.77;13.80;;;4.70;99.90;;;;;;5027354;28;20029;-76
2020/12/09 12:44:55;;;;;;;21.67;14.20;;;4.70;99.90;;;;;;5031140;28;20532;-76
2020/12/09 12:47:24;;;;;;;23.13;14.68;;;4.70;99.90;;;;;;5027114;28;20025;-76